createdAt,value
2023-04-30T00:00:12.448Z,14.30
2023-04-30T00:02:41.685Z,12.40
2023-04-30T00:05:12.620Z,14.60
2023-04-30T00:07:43.180Z,13.60
2023-04-30T00:10:12.820Z,14.65
2023-04-30T00:12:41.838Z,12.75
2023-04-30T00:15:12.480Z,13.63
2023-04-30T00:17:41.537Z,12.18
2023-04-30T00:20:13.701Z,14.63
2023-04-30T00:22:42.746Z,16.75
2023-04-30T00:25:12.172Z,14.80
2023-04-30T00:27:41.411Z,14.70
2023-04-30T00:30:10.936Z,15.68
2023-04-30T00:32:39.991Z,18.52
2023-04-30T00:35:09.560Z,15.57
2023-04-30T00:37:40.173Z,14.85
2023-04-30T00:40:10.706Z,16.98
2023-04-30T00:42:39.706Z,15.00
2023-04-30T00:45:09.948Z,15.93
2023-04-30T00:47:39.302Z,16.23
2023-04-30T00:50:10.612Z,16.33
2023-04-30T00:52:41.340Z,15.32
2023-04-30T00:55:12.379Z,16.73
2023-04-30T00:57:44.395Z,15.02
2023-04-30T01:00:14.844Z,14.05
2023-04-30T01:02:45.117Z,16.63
2023-04-30T01:05:14.141Z,14.93
2023-04-30T01:07:47.155Z,13.85
2023-04-30T01:10:17.163Z,16.95
2023-04-30T01:12:55.854Z,12.90
2023-04-30T01:15:32.582Z,12.75
2023-04-30T01:18:07.441Z,11.48
2023-04-30T01:20:40.375Z,13.02
2023-04-30T01:23:21.067Z,11.85
2023-04-30T01:26:12.255Z,11.68
2023-04-30T01:28:45.837Z,11.40
2023-04-30T01:31:20.403Z,11.48
2023-04-30T01:33:49.446Z,10.25
2023-04-30T01:36:32.597Z,10.63
2023-04-30T01:39:15.504Z,8.98
2023-04-30T01:41:56.883Z,11.15
2023-04-30T01:44:50.415Z,7.70
2023-04-30T01:47:31.887Z,9.77
2023-04-30T01:50:12.399Z,11.70
2023-04-30T01:52:46.742Z,8.40
2023-04-30T01:55:19.354Z,8.05
2023-04-30T01:57:57.910Z,10.07
2023-04-30T02:00:29.575Z,12.20
2023-04-30T02:02:58.902Z,11.50
2023-04-30T02:05:28.057Z,11.73
2023-04-30T02:07:57.246Z,10.88
2023-04-30T02:10:27.310Z,10.10
2023-04-30T02:12:56.301Z,11.45
2023-04-30T02:15:25.477Z,11.82
2023-04-30T02:17:56.224Z,9.45
2023-04-30T02:20:25.606Z,10.00
2023-04-30T02:22:54.761Z,12.18
2023-04-30T02:25:23.798Z,10.85
2023-04-30T02:27:52.933Z,8.82
2023-04-30T02:30:22.127Z,10.07
2023-04-30T02:32:51.153Z,10.35
2023-04-30T02:35:21.910Z,8.40
2023-04-30T02:37:50.938Z,9.30
2023-04-30T02:40:19.930Z,9.48
2023-04-30T02:42:49.309Z,10.10
2023-04-30T02:45:18.394Z,9.07
2023-04-30T02:47:48.308Z,10.00
2023-04-30T02:50:17.652Z,11.35
2023-04-30T02:52:48.448Z,9.73
2023-04-30T02:55:17.635Z,8.98
2023-04-30T02:57:46.677Z,10.73
2023-04-30T03:00:16.343Z,10.27
2023-04-30T03:02:45.584Z,9.18
2023-04-30T03:05:17.342Z,10.65
2023-04-30T03:07:48.536Z,11.30
2023-04-30T03:10:19.865Z,11.68
2023-04-30T03:12:48.828Z,8.07
2023-04-30T03:15:18.003Z,8.27
2023-04-30T03:17:47.026Z,9.55
2023-04-30T03:20:16.061Z,12.25
2023-04-30T03:22:45.065Z,9.38
2023-04-30T03:25:15.856Z,9.25
2023-04-30T03:27:44.813Z,11.30
2023-04-30T03:30:13.868Z,10.13
2023-04-30T03:32:42.893Z,8.43
2023-04-30T03:35:12.203Z,13.00
2023-04-30T03:37:41.359Z,8.02
2023-04-30T03:40:11.154Z,10.02
2023-04-30T03:42:41.823Z,9.40
2023-04-30T03:45:11.398Z,10.30
2023-04-30T03:47:40.360Z,8.85
2023-04-30T03:50:10.635Z,8.70
2023-04-30T03:52:40.164Z,9.27
2023-04-30T03:55:10.108Z,9.75
2023-04-30T03:57:41.851Z,9.05
2023-04-30T04:00:12.077Z,8.88
2023-04-30T04:02:41.297Z,11.02
2023-04-30T04:05:10.828Z,9.10
2023-04-30T04:07:39.871Z,10.10
2023-04-30T04:10:09.852Z,10.07
2023-04-30T04:12:38.771Z,10.50
2023-04-30T04:15:10.913Z,10.10
2023-04-30T04:17:40.012Z,8.95
2023-04-30T04:20:13.318Z,8.10
2023-04-30T04:22:43.118Z,9.57
2023-04-30T04:25:13.016Z,9.82
2023-04-30T04:27:41.986Z,10.07
2023-04-30T04:30:14.611Z,9.10
2023-04-30T04:32:50.422Z,8.20
2023-04-30T04:35:22.773Z,8.85
2023-04-30T04:37:51.921Z,11.38
2023-04-30T04:40:21.158Z,10.25
2023-04-30T04:42:52.958Z,8.88
2023-04-30T04:45:24.670Z,9.63
2023-04-30T04:47:53.670Z,10.93
2023-04-30T04:50:23.655Z,10.75
2023-04-30T04:52:52.692Z,12.07
2023-04-30T04:55:21.759Z,10.60
2023-04-30T04:57:50.760Z,8.68
2023-04-30T05:00:20.133Z,8.95
2023-04-30T05:02:51.497Z,8.82
2023-04-30T05:05:20.590Z,11.20
2023-04-30T05:07:53.142Z,10.93
2023-04-30T05:10:22.692Z,11.88
2023-04-30T05:12:51.802Z,8.27
2023-04-30T05:15:20.937Z,10.30
2023-04-30T05:17:51.624Z,10.73
2023-04-30T05:20:20.739Z,9.88
2023-04-30T05:22:49.706Z,8.93
2023-04-30T05:25:18.755Z,11.73
2023-04-30T05:27:47.912Z,12.55
2023-04-30T05:30:17.381Z,11.23
2023-04-30T05:32:52.974Z,9.38
2023-04-30T05:35:23.735Z,11.65
2023-04-30T05:37:53.166Z,9.73
2023-04-30T05:40:22.209Z,9.35
2023-04-30T05:42:51.295Z,9.68
2023-04-30T05:45:20.427Z,16.65
2023-04-30T05:47:49.452Z,11.27
2023-04-30T05:50:18.611Z,11.77
2023-04-30T05:52:49.229Z,13.70
2023-04-30T05:55:18.313Z,11.63
2023-04-30T05:57:47.395Z,13.02
2023-04-30T06:00:17.271Z,12.13
2023-04-30T06:02:46.622Z,12.63
2023-04-30T06:05:16.397Z,11.88
2023-04-30T06:07:45.636Z,12.73
2023-04-30T06:10:16.976Z,12.82
2023-04-30T06:12:46.017Z,12.90
2023-04-30T06:15:14.988Z,12.45
2023-04-30T06:17:44.051Z,11.68
2023-04-30T06:20:15.357Z,11.32
2023-04-30T06:22:44.315Z,12.52
2023-04-30T06:25:13.357Z,13.25
2023-04-30T06:27:44.544Z,12.85
2023-04-30T06:30:14.247Z,16.50
2023-04-30T06:32:43.366Z,13.50
2023-04-30T06:35:12.451Z,13.52
2023-04-30T06:37:41.582Z,12.38
2023-04-30T06:40:11.250Z,14.82
2023-04-30T06:42:40.382Z,14.10
2023-04-30T06:45:13.188Z,13.10
2023-04-30T06:47:43.475Z,13.40
2023-04-30T06:50:12.753Z,14.27
2023-04-30T06:52:41.909Z,13.15
2023-04-30T06:55:11.177Z,13.73
2023-04-30T06:57:40.827Z,12.90
2023-04-30T07:00:13.398Z,14.82
2023-04-30T07:02:42.463Z,17.38
2023-04-30T07:05:13.040Z,15.15
2023-04-30T07:07:42.263Z,17.27
2023-04-30T07:10:11.626Z,15.15
2023-04-30T07:12:40.681Z,14.88
2023-04-30T07:15:12.845Z,17.75
2023-04-30T07:17:42.790Z,16.75
2023-04-30T07:20:14.021Z,17.63
2023-04-30T07:22:45.342Z,19.88
2023-04-30T07:25:14.752Z,17.40
2023-04-30T07:27:44.098Z,18.45
2023-04-30T07:30:14.836Z,19.13
2023-04-30T07:32:44.526Z,15.88
2023-04-30T07:35:13.572Z,17.98
2023-04-30T07:37:44.719Z,18.63
2023-04-30T07:40:21.891Z,19.15
2023-04-30T07:42:54.395Z,22.27
2023-04-30T07:45:24.990Z,18.42
2023-04-30T07:47:54.082Z,21.15
2023-04-30T07:50:23.172Z,20.63
2023-04-30T07:52:52.235Z,20.63
2023-04-30T07:55:21.333Z,21.05
2023-04-30T07:57:50.324Z,20.88
2023-04-30T08:00:19.315Z,20.13
2023-04-30T08:02:51.097Z,22.73
2023-04-30T08:05:20.394Z,20.67
2023-04-30T08:07:49.432Z,22.85
2023-04-30T08:10:18.730Z,23.55
2023-04-30T08:12:47.673Z,22.77
2023-04-30T08:15:16.705Z,26.77
2023-04-30T08:17:46.381Z,26.45
2023-04-30T08:20:17.073Z,25.42
2023-04-30T08:22:46.469Z,23.38
2023-04-30T08:25:15.784Z,29.88
2023-04-30T08:27:44.834Z,25.92
2023-04-30T08:30:14.163Z,24.08
2023-04-30T08:32:43.234Z,24.90
2023-04-30T08:35:12.559Z,26.13
2023-04-30T08:37:43.272Z,27.63
2023-04-30T08:40:13.090Z,33.03
2023-04-30T08:42:49.101Z,31.10
2023-04-30T08:45:19.186Z,34.22
2023-04-30T08:47:49.669Z,34.25
2023-04-30T08:50:19.118Z,33.85
2023-04-30T08:52:49.999Z,36.10
2023-04-30T08:55:19.178Z,32.80
2023-04-30T08:57:48.204Z,34.35
2023-04-30T09:00:17.579Z,31.95
2023-04-30T09:02:47.985Z,37.53
2023-04-30T09:05:17.239Z,36.88
2023-04-30T09:10:23.718Z,36.72
2023-04-30T09:13:03.035Z,36.28
2023-04-30T09:15:32.863Z,36.35
2023-04-30T09:18:11.751Z,33.88
2023-04-30T09:20:55.885Z,36.38
2023-04-30T09:23:25.736Z,35.92
2023-04-30T09:25:57.457Z,39.47
2023-04-30T09:28:28.257Z,38.40
2023-04-30T09:30:58.994Z,39.85
2023-04-30T09:33:28.101Z,38.10
2023-04-30T09:35:57.262Z,36.05
2023-04-30T09:38:31.215Z,36.70
2023-04-30T09:41:02.691Z,35.97
2023-04-30T09:43:32.487Z,40.05
2023-04-30T09:46:01.777Z,41.67
2023-04-30T09:48:30.798Z,40.45
2023-04-30T09:50:59.970Z,38.45
2023-04-30T09:53:29.988Z,37.35
2023-04-30T09:56:04.016Z,36.25
2023-04-30T09:58:37.834Z,36.85
2023-04-30T10:01:12.195Z,37.78
2023-04-30T10:03:43.799Z,39.95
2023-04-30T10:06:16.495Z,37.33
2023-04-30T10:08:48.097Z,40.50
2023-04-30T10:11:22.435Z,42.10
2023-04-30T10:13:55.883Z,44.17
2023-04-30T10:16:35.979Z,39.50
2023-04-30T10:19:13.232Z,41.35
2023-04-30T10:21:44.569Z,42.58
2023-04-30T10:24:15.211Z,41.63
2023-04-30T10:26:47.179Z,40.35
2023-04-30T10:29:17.677Z,40.53
2023-04-30T10:31:49.942Z,39.15
2023-04-30T10:34:30.481Z,41.45
2023-04-30T10:37:01.886Z,40.03
2023-04-30T10:39:31.424Z,42.28
2023-04-30T10:42:07.205Z,42.00
2023-04-30T10:44:37.739Z,43.90
2023-04-30T10:47:09.180Z,40.70
2023-04-30T10:49:38.516Z,45.20
2023-04-30T10:52:08.651Z,41.88
2023-04-30T10:54:39.271Z,41.70
2023-04-30T10:57:14.971Z,41.10
2023-04-30T10:59:54.516Z,44.17
2023-04-30T11:02:23.777Z,43.50
2023-04-30T11:05:13.373Z,43.50
2023-04-30T11:07:50.733Z,44.78
2023-04-30T11:10:24.187Z,48.40
2023-04-30T11:12:56.523Z,45.33
2023-04-30T11:15:27.812Z,48.78
2023-04-30T11:18:02.343Z,41.70
2023-04-30T11:20:31.825Z,44.97
2023-04-30T11:23:32.220Z,48.28
2023-04-30T11:26:09.184Z,41.92
2023-04-30T11:28:40.029Z,46.95
2023-04-30T11:31:09.208Z,46.78
2023-04-30T11:33:38.201Z,47.42
2023-04-30T11:36:08.202Z,45.80
2023-04-30T11:38:38.219Z,46.13
2023-04-30T11:41:07.416Z,50.13
2023-04-30T11:43:37.042Z,47.15
2023-04-30T11:46:10.646Z,50.35
2023-04-30T11:48:40.435Z,46.65
2023-04-30T11:51:16.904Z,48.38
2023-04-30T11:53:48.271Z,47.78
2023-04-30T11:56:21.637Z,46.03
2023-04-30T11:58:51.568Z,47.58
2023-04-30T12:01:22.996Z,43.67
2023-04-30T12:03:54.032Z,47.22
2023-04-30T12:06:28.394Z,43.92
2023-04-30T12:08:58.910Z,44.13
2023-04-30T12:11:30.260Z,45.05
2023-04-30T12:14:04.113Z,48.58
2023-04-30T12:16:46.273Z,47.10
2023-04-30T12:19:15.558Z,46.47
2023-04-30T12:21:47.509Z,45.55
2023-04-30T12:24:17.924Z,48.97
2023-04-30T12:26:47.470Z,47.88
2023-04-30T12:29:18.244Z,44.60
2023-04-30T12:31:54.269Z,37.03
2023-04-30T12:34:27.904Z,37.92
2023-04-30T12:37:00.127Z,42.35
2023-04-30T12:39:35.377Z,38.50
2023-04-30T12:42:05.227Z,44.60
2023-04-30T12:44:45.153Z,41.78
2023-04-30T12:47:16.412Z,41.25
2023-04-30T12:49:47.718Z,41.42
2023-04-30T12:52:16.700Z,40.60
2023-04-30T12:54:46.316Z,40.13
2023-04-30T12:57:15.304Z,38.92
2023-04-30T13:00:02.646Z,38.67
2023-04-30T13:02:33.475Z,42.53
2023-04-30T13:05:02.790Z,42.35
2023-04-30T13:07:40.652Z,40.53
2023-04-30T13:10:10.553Z,36.33
2023-04-30T13:12:39.491Z,41.60
2023-04-30T13:15:09.358Z,43.03
2023-04-30T13:17:40.385Z,44.55
2023-04-30T13:20:11.088Z,42.47
2023-04-30T13:22:40.184Z,43.60
2023-04-30T13:25:09.966Z,43.70
2023-04-30T13:27:38.952Z,47.17
2023-04-30T13:30:09.544Z,44.05
2023-04-30T13:32:40.241Z,46.42
2023-04-30T13:35:11.142Z,47.75
2023-04-30T13:37:40.374Z,45.75
2023-04-30T13:40:10.653Z,46.72
2023-04-30T13:42:40.531Z,45.08
2023-04-30T13:45:10.667Z,44.40
2023-04-30T13:47:41.851Z,44.08
2023-04-30T13:50:11.741Z,46.85
2023-04-30T13:52:40.769Z,44.20
2023-04-30T13:55:10.887Z,45.53
2023-04-30T13:57:40.611Z,43.55
2023-04-30T14:00:10.913Z,48.30
2023-04-30T14:02:41.828Z,46.83
2023-04-30T14:05:11.704Z,43.58
2023-04-30T14:07:40.729Z,43.25
2023-04-30T14:10:10.522Z,45.90
2023-04-30T14:12:39.801Z,42.75
2023-04-30T14:15:09.505Z,43.25
2023-04-30T14:17:38.570Z,47.22
2023-04-30T14:20:10.640Z,43.65
2023-04-30T14:22:39.699Z,48.13
2023-04-30T14:25:10.366Z,42.45
2023-04-30T14:27:39.367Z,42.90
2023-04-30T14:30:10.089Z,40.70
2023-04-30T14:32:39.473Z,43.75
2023-04-30T14:35:11.383Z,45.17
2023-04-30T14:37:40.389Z,42.50
2023-04-30T14:40:10.500Z,44.05
2023-04-30T14:42:39.564Z,41.92
2023-04-30T14:45:09.991Z,38.58
2023-04-30T14:47:39.246Z,43.67
2023-04-30T14:50:11.063Z,46.67
2023-04-30T14:52:41.332Z,38.40
2023-04-30T14:55:10.944Z,40.75
2023-04-30T14:57:39.984Z,41.97
2023-04-30T15:00:10.692Z,41.00
2023-04-30T15:02:39.806Z,41.72
2023-04-30T15:05:11.414Z,41.47
2023-04-30T15:07:40.501Z,41.85
2023-04-30T15:10:10.633Z,41.83
2023-04-30T15:12:40.511Z,43.67
2023-04-30T15:15:10.521Z,41.17
2023-04-30T15:17:39.775Z,40.88
2023-04-30T15:20:11.601Z,38.95
2023-04-30T15:22:40.547Z,41.92
2023-04-30T15:25:10.270Z,42.58
2023-04-30T15:27:40.176Z,42.17
2023-04-30T15:30:10.512Z,40.33
2023-04-30T15:32:40.169Z,40.30
2023-04-30T15:35:11.288Z,41.55
2023-04-30T15:37:40.380Z,43.33
2023-04-30T15:40:16.021Z,41.75
2023-04-30T15:42:45.014Z,45.42
2023-04-30T15:45:14.094Z,42.45
2023-04-30T15:47:43.287Z,41.42
2023-04-30T15:50:14.213Z,38.70
2023-04-30T15:52:43.302Z,40.50
2023-04-30T15:55:12.479Z,43.50
2023-04-30T15:57:41.601Z,41.72
2023-04-30T16:00:13.520Z,39.80
2023-04-30T16:02:42.667Z,37.47
2023-04-30T16:05:13.521Z,41.63
2023-04-30T16:07:43.969Z,39.80
2023-04-30T16:10:13.841Z,39.00
2023-04-30T16:12:42.863Z,38.30
2023-04-30T16:15:12.968Z,45.92
2023-04-30T16:17:42.105Z,38.97
2023-04-30T16:20:13.764Z,37.65
2023-04-30T16:22:43.270Z,36.75
2023-04-30T16:25:12.586Z,40.65
2023-04-30T16:27:42.214Z,39.20
2023-04-30T16:30:12.136Z,43.70
2023-04-30T16:32:41.135Z,38.25
2023-04-30T16:35:10.862Z,42.47
2023-04-30T16:37:41.771Z,43.20
2023-04-30T16:40:13.022Z,83.38
2023-04-30T16:42:42.003Z,45.70
2023-04-30T16:45:11.628Z,43.83
2023-04-30T16:47:41.284Z,43.50
2023-04-30T16:50:11.345Z,42.88
2023-04-30T16:52:42.148Z,40.22
2023-04-30T16:55:11.589Z,43.00
2023-04-30T16:57:40.619Z,45.42
2023-04-30T17:00:15.115Z,44.13
2023-04-30T17:02:49.189Z,41.25
2023-04-30T17:05:18.419Z,42.05
2023-04-30T17:07:52.315Z,42.25
2023-04-30T17:10:22.598Z,48.13
2023-04-30T17:12:51.673Z,39.47
2023-04-30T17:15:21.104Z,43.47
2023-04-30T17:17:50.279Z,45.95
2023-04-30T17:20:19.429Z,44.95
2023-04-30T17:22:50.137Z,40.28
2023-04-30T17:25:19.154Z,41.70
2023-04-30T17:27:48.351Z,40.88
2023-04-30T17:30:17.742Z,43.72
2023-04-30T17:32:47.048Z,47.75
2023-04-30T17:35:16.167Z,39.92
2023-04-30T17:37:45.338Z,41.65
2023-04-30T17:40:16.775Z,40.30
2023-04-30T17:42:46.114Z,42.35
2023-04-30T17:45:15.149Z,46.72
2023-04-30T17:47:44.243Z,41.00
2023-04-30T17:50:13.296Z,39.80
2023-04-30T17:52:42.738Z,39.85
2023-04-30T17:55:12.277Z,41.05
2023-04-30T17:57:43.225Z,42.00
2023-04-30T18:00:13.227Z,39.67
2023-04-30T18:02:45.257Z,41.83
2023-04-30T18:05:14.261Z,40.20
2023-04-30T18:07:43.405Z,42.95
2023-04-30T18:10:12.773Z,41.08
2023-04-30T18:12:44.199Z,37.88
2023-04-30T18:15:15.973Z,40.90
2023-04-30T18:17:45.363Z,38.15
2023-04-30T18:20:14.444Z,38.85
2023-04-30T18:22:44.244Z,37.17
2023-04-30T18:25:14.160Z,36.67
2023-04-30T18:27:45.327Z,37.65
2023-04-30T18:30:14.555Z,38.33
2023-04-30T18:32:45.132Z,33.40
2023-04-30T18:35:16.598Z,34.70
2023-04-30T18:37:45.652Z,35.33
2023-04-30T18:40:14.827Z,39.97
2023-04-30T18:42:45.697Z,32.55
2023-04-30T18:45:16.275Z,30.00
2023-04-30T18:47:45.716Z,28.13
2023-04-30T18:50:18.306Z,27.90
2023-04-30T18:52:47.491Z,31.92
2023-04-30T18:55:16.690Z,31.70
2023-04-30T18:57:47.464Z,32.92
2023-04-30T19:00:16.805Z,28.13
2023-04-30T19:02:46.025Z,25.85
2023-04-30T19:05:15.465Z,23.90
2023-04-30T19:07:44.711Z,22.23
2023-04-30T19:10:13.964Z,25.80
2023-04-30T19:12:44.832Z,25.88
2023-04-30T19:15:15.994Z,26.40
2023-04-30T19:17:45.727Z,23.60
2023-04-30T19:20:15.117Z,24.98
2023-04-30T19:22:44.426Z,23.65
2023-04-30T19:25:13.886Z,30.27
2023-04-30T19:27:44.766Z,25.95
2023-04-30T19:30:16.161Z,27.63
2023-04-30T19:32:45.499Z,22.17
2023-04-30T19:35:18.136Z,28.65
2023-04-30T19:37:47.240Z,25.02
2023-04-30T19:40:16.765Z,24.13
2023-04-30T19:42:45.828Z,27.02
2023-04-30T19:45:16.524Z,19.48
2023-04-30T19:47:45.537Z,21.42
2023-04-30T19:50:14.708Z,20.98
2023-04-30T19:52:43.721Z,25.08
2023-04-30T19:55:12.794Z,21.77
2023-04-30T19:57:41.978Z,24.90
2023-04-30T20:00:13.817Z,23.48
2023-04-30T20:02:45.518Z,21.27
2023-04-30T20:05:14.976Z,26.92
2023-04-30T20:07:44.012Z,18.33
2023-04-30T20:10:13.471Z,24.30
2023-04-30T20:12:42.423Z,20.88
2023-04-30T20:15:12.106Z,23.73
2023-04-30T20:17:41.139Z,21.75
2023-04-30T20:20:13.401Z,23.02
2023-04-30T20:22:42.626Z,23.35
2023-04-30T20:25:11.998Z,23.05
2023-04-30T20:27:41.125Z,18.52
2023-04-30T20:30:11.782Z,22.17
2023-04-30T20:32:42.093Z,21.98
2023-04-30T20:35:13.156Z,21.10
2023-04-30T20:37:42.596Z,21.58
2023-04-30T20:40:12.478Z,16.58
2023-04-30T20:42:41.616Z,18.92
2023-04-30T20:45:12.205Z,20.48
2023-04-30T20:47:41.875Z,18.77
2023-04-30T20:50:17.477Z,21.98
2023-04-30T20:52:46.564Z,18.83
2023-04-30T20:55:15.634Z,17.38
2023-04-30T20:57:44.760Z,19.02
2023-04-30T21:00:15.095Z,18.88
2023-04-30T21:02:44.163Z,17.58
2023-04-30T21:05:15.489Z,17.80
2023-04-30T21:07:46.637Z,19.30
2023-04-30T21:10:15.640Z,21.30
2023-04-30T21:12:44.650Z,16.75
2023-04-30T21:15:14.482Z,17.75
2023-04-30T21:17:43.565Z,20.55
2023-04-30T21:20:15.143Z,18.17
2023-04-30T21:22:44.175Z,17.60
2023-04-30T21:25:13.302Z,20.15
2023-04-30T21:27:42.441Z,20.77
2023-04-30T21:30:11.846Z,22.88
2023-04-30T21:32:43.674Z,22.20
2023-04-30T21:35:12.774Z,19.92
2023-04-30T21:37:43.750Z,21.05
2023-04-30T21:40:13.440Z,23.52
2023-04-30T21:42:42.441Z,22.98
2023-04-30T21:45:11.913Z,24.15
2023-04-30T21:47:41.223Z,22.15
2023-04-30T21:50:11.640Z,24.50
2023-04-30T21:52:40.820Z,23.70
2023-04-30T21:55:12.540Z,21.90
2023-04-30T21:57:41.851Z,23.33
2023-04-30T22:00:15.653Z,22.35
2023-04-30T22:02:46.998Z,21.55
2023-04-30T22:05:16.330Z,20.60
2023-04-30T22:07:45.467Z,20.60
2023-04-30T22:10:16.464Z,20.48
2023-04-30T22:12:47.811Z,16.35
2023-04-30T22:15:17.567Z,19.48
2023-04-30T22:17:47.304Z,21.83
2023-04-30T22:20:16.629Z,16.50
2023-04-30T22:22:45.670Z,17.98
2023-04-30T22:25:16.767Z,26.73
2023-04-30T22:27:46.585Z,20.08
2023-04-30T22:30:16.002Z,13.27
2023-04-30T22:32:45.155Z,18.50
2023-04-30T22:35:18.080Z,18.58
2023-04-30T22:37:47.425Z,12.40
2023-04-30T22:40:18.751Z,17.60
2023-04-30T22:42:48.164Z,12.90
2023-04-30T22:45:17.460Z,33.13
2023-04-30T22:47:47.079Z,13.25
2023-04-30T22:50:16.377Z,14.07
2023-04-30T22:52:45.384Z,14.68
2023-04-30T22:55:14.491Z,13.20
2023-04-30T22:57:45.089Z,13.25
2023-04-30T23:00:15.227Z,10.82
2023-04-30T23:02:44.505Z,12.98
2023-04-30T23:05:13.776Z,14.50
2023-04-30T23:07:42.899Z,13.77
2023-04-30T23:10:12.584Z,13.68
2023-04-30T23:12:41.512Z,13.75
2023-04-30T23:15:13.133Z,11.73
2023-04-30T23:17:42.276Z,10.32
2023-04-30T23:20:12.214Z,11.25
2023-04-30T23:22:41.246Z,11.20
2023-04-30T23:25:10.625Z,16.33
2023-04-30T23:27:39.557Z,16.55
2023-04-30T23:30:12.354Z,10.55
2023-04-30T23:32:41.457Z,13.40
2023-04-30T23:35:11.236Z,11.27
2023-04-30T23:37:40.391Z,11.98
2023-04-30T23:40:11.044Z,10.35
2023-04-30T23:42:40.259Z,11.18
2023-04-30T23:45:12.226Z,11.10
2023-04-30T23:47:41.336Z,11.45
2023-04-30T23:50:11.529Z,9.30
2023-04-30T23:52:40.581Z,10.05
2023-04-30T23:55:10.384Z,9.40
2023-04-30T23:57:39.336Z,9.52
